sensor_id;sensor_type;location;lat;lon;timestamp;pressure;altitude;pressure_sealevel;temperature;humidity
49935;BME280;39898;41.762;26.200;2022-09-30T00:01:33;100344.66;;;18.91;nan
49935;BME280;39898;41.762;26.200;2022-09-30T00:04:01;100350.94;;;19.22;nan
49935;BME280;39898;41.762;26.200;2022-09-30T00:06:29;100353.78;;;19.19;nan
49935;BME280;39898;41.762;26.200;2022-09-30T00:08:55;100360.31;;;18.97;nan
49935;BME280;39898;41.762;26.200;2022-09-30T00:11:26;100351.66;;;19.10;nan
49935;BME280;39898;41.762;26.200;2022-09-30T00:13:55;100356.72;;;18.98;nan
49935;BME280;39898;41.762;26.200;2022-09-30T00:16:24;100346.03;;;18.83;nan
49935;BME280;39898;41.762;26.200;2022-09-30T00:18:53;100359.88;;;18.74;nan
49935;BME280;39898;41.762;26.200;2022-09-30T00:21:21;100337.88;;;18.70;nan
49935;BME280;39898;41.762;26.200;2022-09-30T00:23:48;100354.25;;;18.63;nan
49935;BME280;39898;41.762;26.200;2022-09-30T00:26:18;100373.22;;;18.57;nan
49935;BME280;39898;41.762;26.200;2022-09-30T00:28:48;100363.72;;;18.68;nan
49935;BME280;39898;41.762;26.200;2022-09-30T00:31:17;100349.16;;;18.43;nan
49935;BME280;39898;41.762;26.200;2022-09-30T00:33:45;100367.53;;;18.47;nan
49935;BME280;39898;41.762;26.200;2022-09-30T00:36:42;100365.91;;;18.28;nan
49935;BME280;39898;41.762;26.200;2022-09-30T00:39:24;100380.06;;;18.28;nan
49935;BME280;39898;41.762;26.200;2022-09-30T00:41:57;100383.19;;;18.53;nan
49935;BME280;39898;41.762;26.200;2022-09-30T00:44:51;100385.28;;;18.47;nan
49935;BME280;39898;41.762;26.200;2022-09-30T00:50:18;100385.19;;;18.65;nan
49935;BME280;39898;41.762;26.200;2022-09-30T00:52:59;100391.59;;;18.61;nan
49935;BME280;39898;41.762;26.200;2022-09-30T00:57:58;100393.44;;;18.76;nan
49935;BME280;39898;41.762;26.200;2022-09-30T01:00:27;100385.28;;;18.79;nan
49935;BME280;39898;41.762;26.200;2022-09-30T01:02:54;100395.94;;;18.79;nan
49935;BME280;39898;41.762;26.200;2022-09-30T01:05:22;100398.25;;;18.53;nan
49935;BME280;39898;41.762;26.200;2022-09-30T01:07:51;100411.22;;;18.43;nan
49935;BME280;39898;41.762;26.200;2022-09-30T01:10:19;100405.25;;;18.38;nan
49935;BME280;39898;41.762;26.200;2022-09-30T01:12:45;100404.69;;;18.32;nan
49935;BME280;39898;41.762;26.200;2022-09-30T01:15:12;100421.97;;;18.57;nan
49935;BME280;39898;41.762;26.200;2022-09-30T01:18:35;100416.09;;;18.68;nan
49935;BME280;39898;41.762;26.200;2022-09-30T01:21:21;100427.00;;;18.29;nan
49935;BME280;39898;41.762;26.200;2022-09-30T01:24:15;100429.41;;;18.17;nan
49935;BME280;39898;41.762;26.200;2022-09-30T01:26:54;100412.63;;;18.16;nan
49935;BME280;39898;41.762;26.200;2022-09-30T01:38:04;100448.16;;;17.44;nan
49935;BME280;39898;41.762;26.200;2022-09-30T01:40:46;100440.38;;;17.40;nan
49935;BME280;39898;41.762;26.200;2022-09-30T01:43:29;100447.72;;;17.35;nan
49935;BME280;39898;41.762;26.200;2022-09-30T01:46:09;100442.03;;;17.24;nan
49935;BME280;39898;41.762;26.200;2022-09-30T01:48:45;100446.56;;;17.22;nan
49935;BME280;39898;41.762;26.200;2022-09-30T01:51:28;100441.47;;;17.17;nan
49935;BME280;39898;41.762;26.200;2022-09-30T01:54:06;100441.91;;;17.08;nan
49935;BME280;39898;41.762;26.200;2022-09-30T01:56:45;100437.00;;;17.18;nan
49935;BME280;39898;41.762;26.200;2022-09-30T02:02:01;100405.78;;;17.41;nan
49935;BME280;39898;41.762;26.200;2022-09-30T02:04:39;100433.56;;;17.34;nan
49935;BME280;39898;41.762;26.200;2022-09-30T02:07:11;100434.50;;;17.33;nan
49935;BME280;39898;41.762;26.200;2022-09-30T02:09:44;100439.31;;;17.44;nan
49935;BME280;39898;41.762;26.200;2022-09-30T02:12:19;100438.88;;;17.53;nan
49935;BME280;39898;41.762;26.200;2022-09-30T02:14:51;100437.00;;;17.36;nan
49935;BME280;39898;41.762;26.200;2022-09-30T02:17:43;100443.47;;;17.31;nan
49935;BME280;39898;41.762;26.200;2022-09-30T02:20:22;100457.94;;;16.87;nan
49935;BME280;39898;41.762;26.200;2022-09-30T02:23:05;100435.50;;;16.94;nan
49935;BME280;39898;41.762;26.200;2022-09-30T02:25:40;100439.56;;;16.82;nan
49935;BME280;39898;41.762;26.200;2022-09-30T02:28:11;100444.00;;;16.82;nan
49935;BME280;39898;41.762;26.200;2022-09-30T02:30:44;100418.22;;;16.46;nan
49935;BME280;39898;41.762;26.200;2022-09-30T02:33:28;100454.53;;;16.64;nan
49935;BME280;39898;41.762;26.200;2022-09-30T02:36:14;100452.16;;;16.58;nan
49935;BME280;39898;41.762;26.200;2022-09-30T02:38:47;100463.94;;;16.71;nan
49935;BME280;39898;41.762;26.200;2022-09-30T02:41:21;100464.31;;;16.83;nan
49935;BME280;39898;41.762;26.200;2022-09-30T02:43:50;100459.31;;;16.95;nan
49935;BME280;39898;41.762;26.200;2022-09-30T02:51:39;100482.72;;;17.24;nan
49935;BME280;39898;41.762;26.200;2022-09-30T02:54:35;100467.41;;;16.92;nan
49935;BME280;39898;41.762;26.200;2022-09-30T02:57:15;100505.50;;;16.91;nan
49935;BME280;39898;41.762;26.200;2022-09-30T02:59:50;100487.59;;;16.76;nan
49935;BME280;39898;41.762;26.200;2022-09-30T03:02:19;100486.34;;;16.64;nan
49935;BME280;39898;41.762;26.200;2022-09-30T03:04:48;100496.97;;;16.44;nan
49935;BME280;39898;41.762;26.200;2022-09-30T03:07:16;100484.59;;;16.23;nan
49935;BME280;39898;41.762;26.200;2022-09-30T03:09:43;100497.19;;;16.18;nan
49935;BME280;39898;41.762;26.200;2022-09-30T03:13:12;100501.88;;;16.12;nan
49935;BME280;39898;41.762;26.200;2022-09-30T03:15:27;100481.69;;;16.09;nan
49935;BME280;39898;41.762;26.200;2022-09-30T03:20:52;100498.13;;;16.17;nan
49935;BME280;39898;41.762;26.200;2022-09-30T03:23:38;100458.28;;;15.99;nan
49935;BME280;39898;41.762;26.200;2022-09-30T03:31:52;100490.56;;;15.87;nan
49935;BME280;39898;41.762;26.200;2022-09-30T03:34:26;100479.84;;;15.68;nan
49935;BME280;39898;41.762;26.200;2022-09-30T03:42:28;100474.06;;;15.80;nan
49935;BME280;39898;41.762;26.200;2022-09-30T03:45:33;100484.59;;;15.82;nan
49935;BME280;39898;41.762;26.200;2022-09-30T03:48:04;100480.31;;;15.79;nan
49935;BME280;39898;41.762;26.200;2022-09-30T03:50:34;100488.84;;;15.64;nan
49935;BME280;39898;41.762;26.200;2022-09-30T03:53:03;100483.06;;;15.55;nan
49935;BME280;39898;41.762;26.200;2022-09-30T03:55:43;100491.69;;;15.60;nan
49935;BME280;39898;41.762;26.200;2022-09-30T03:58:10;100502.13;;;15.41;nan
49935;BME280;39898;41.762;26.200;2022-09-30T04:00:37;100498.63;;;15.41;nan
49935;BME280;39898;41.762;26.200;2022-09-30T04:03:06;100503.03;;;15.17;nan
49935;BME280;39898;41.762;26.200;2022-09-30T04:05:32;100492.47;;;15.17;nan
49935;BME280;39898;41.762;26.200;2022-09-30T04:07:59;100491.69;;;15.14;nan
49935;BME280;39898;41.762;26.200;2022-09-30T04:10:27;100494.06;;;15.21;nan
49935;BME280;39898;41.762;26.200;2022-09-30T04:12:54;100501.72;;;15.29;nan
49935;BME280;39898;41.762;26.200;2022-09-30T04:15:20;100498.97;;;15.32;nan
49935;BME280;39898;41.762;26.200;2022-09-30T04:17:47;100504.31;;;15.30;nan
49935;BME280;39898;41.762;26.200;2022-09-30T04:20:14;100494.72;;;15.28;nan
49935;BME280;39898;41.762;26.200;2022-09-30T04:22:41;100498.03;;;15.33;nan
49935;BME280;39898;41.762;26.200;2022-09-30T04:25:07;100503.19;;;15.36;nan
49935;BME280;39898;41.762;26.200;2022-09-30T04:27:34;100510.19;;;15.38;nan
49935;BME280;39898;41.762;26.200;2022-09-30T04:30:01;100513.72;;;15.39;nan
49935;BME280;39898;41.762;26.200;2022-09-30T04:32:28;100519.66;;;15.44;nan
49935;BME280;39898;41.762;26.200;2022-09-30T04:34:55;100511.66;;;15.45;nan
49935;BME280;39898;41.762;26.200;2022-09-30T04:37:22;100491.72;;;15.37;nan
49935;BME280;39898;41.762;26.200;2022-09-30T04:39:49;100515.19;;;15.46;nan
49935;BME280;39898;41.762;26.200;2022-09-30T04:42:16;100525.06;;;15.41;nan
49935;BME280;39898;41.762;26.200;2022-09-30T04:44:43;100524.78;;;15.48;nan
49935;BME280;39898;41.762;26.200;2022-09-30T04:47:10;100525.38;;;15.56;nan
49935;BME280;39898;41.762;26.200;2022-09-30T04:49:37;100512.69;;;15.64;nan
49935;BME280;39898;41.762;26.200;2022-09-30T04:52:04;100519.22;;;15.77;nan
49935;BME280;39898;41.762;26.200;2022-09-30T04:54:31;100526.75;;;15.88;nan
49935;BME280;39898;41.762;26.200;2022-09-30T04:56:57;100502.22;;;15.83;nan
49935;BME280;39898;41.762;26.200;2022-09-30T04:59:24;100520.44;;;16.12;nan
49935;BME280;39898;41.762;26.200;2022-09-30T05:01:51;100511.81;;;16.27;nan
49935;BME280;39898;41.762;26.200;2022-09-30T05:04:17;100501.09;;;16.30;nan
49935;BME280;39898;41.762;26.200;2022-09-30T05:06:44;100520.38;;;16.55;nan
49935;BME280;39898;41.762;26.200;2022-09-30T05:09:11;100518.25;;;16.63;nan
49935;BME280;39898;41.762;26.200;2022-09-30T05:11:38;100537.72;;;16.82;nan
49935;BME280;39898;41.762;26.200;2022-09-30T05:14:08;100545.09;;;16.96;nan
49935;BME280;39898;41.762;26.200;2022-09-30T05:16:34;100567.31;;;17.13;nan
49935;BME280;39898;41.762;26.200;2022-09-30T05:19:02;100539.25;;;17.26;nan
49935;BME280;39898;41.762;26.200;2022-09-30T05:21:29;100552.84;;;17.39;nan
49935;BME280;39898;41.762;26.200;2022-09-30T05:23:55;100549.50;;;17.54;nan
49935;BME280;39898;41.762;26.200;2022-09-30T05:26:23;100520.66;;;17.46;nan
49935;BME280;39898;41.762;26.200;2022-09-30T05:28:51;100552.22;;;17.71;nan
49935;BME280;39898;41.762;26.200;2022-09-30T05:31:18;100549.84;;;17.83;nan
49935;BME280;39898;41.762;26.200;2022-09-30T05:33:46;100550.41;;;17.90;nan
49935;BME280;39898;41.762;26.200;2022-09-30T05:36:14;100557.06;;;17.98;nan
49935;BME280;39898;41.762;26.200;2022-09-30T05:38:41;100546.91;;;17.89;nan
49935;BME280;39898;41.762;26.200;2022-09-30T05:41:10;100557.72;;;18.03;nan
49935;BME280;39898;41.762;26.200;2022-09-30T05:43:38;100559.22;;;18.09;nan
49935;BME280;39898;41.762;26.200;2022-09-30T05:46:05;100567.66;;;18.17;nan
49935;BME280;39898;41.762;26.200;2022-09-30T05:48:32;100563.22;;;18.17;nan
49935;BME280;39898;41.762;26.200;2022-09-30T05:51:00;100568.53;;;18.17;nan
49935;BME280;39898;41.762;26.200;2022-09-30T05:53:28;100569.94;;;18.24;nan
49935;BME280;39898;41.762;26.200;2022-09-30T05:55:55;100591.28;;;18.41;nan
49935;BME280;39898;41.762;26.200;2022-09-30T05:58:22;100596.53;;;18.60;nan
49935;BME280;39898;41.762;26.200;2022-09-30T06:00:49;100597.50;;;18.76;nan
49935;BME280;39898;41.762;26.200;2022-09-30T06:03:17;100602.88;;;18.91;nan
49935;BME280;39898;41.762;26.200;2022-09-30T06:05:44;100589.91;;;19.02;nan
49935;BME280;39898;41.762;26.200;2022-09-30T06:08:12;100585.66;;;19.16;nan
49935;BME280;39898;41.762;26.200;2022-09-30T06:10:43;100597.13;;;19.50;nan
49935;BME280;39898;41.762;26.200;2022-09-30T06:13:10;100567.09;;;19.47;nan
49935;BME280;39898;41.762;26.200;2022-09-30T06:15:37;100574.69;;;19.54;nan
49935;BME280;39898;41.762;26.200;2022-09-30T06:18:05;100576.25;;;19.74;nan
49935;BME280;39898;41.762;26.200;2022-09-30T06:20:32;100598.44;;;20.21;nan
49935;BME280;39898;41.762;26.200;2022-09-30T06:22:59;100590.19;;;20.25;nan
49935;BME280;39898;41.762;26.200;2022-09-30T06:25:28;100593.03;;;20.38;nan
49935;BME280;39898;41.762;26.200;2022-09-30T06:27:55;100574.66;;;20.47;nan
49935;BME280;39898;41.762;26.200;2022-09-30T06:30:22;100600.00;;;20.70;nan
49935;BME280;39898;41.762;26.200;2022-09-30T06:32:49;100596.44;;;20.85;nan
49935;BME280;39898;41.762;26.200;2022-09-30T06:35:17;100589.56;;;20.81;nan
49935;BME280;39898;41.762;26.200;2022-09-30T06:37:44;100591.75;;;21.18;nan
49935;BME280;39898;41.762;26.200;2022-09-30T06:40:11;100590.44;;;21.39;nan
49935;BME280;39898;41.762;26.200;2022-09-30T06:42:38;100600.66;;;21.47;nan
49935;BME280;39898;41.762;26.200;2022-09-30T06:45:06;100603.31;;;21.47;nan
49935;BME280;39898;41.762;26.200;2022-09-30T06:47:33;100598.06;;;21.45;nan
49935;BME280;39898;41.762;26.200;2022-09-30T06:49:59;100604.56;;;21.55;nan
49935;BME280;39898;41.762;26.200;2022-09-30T06:52:27;100590.63;;;21.50;nan
49935;BME280;39898;41.762;26.200;2022-09-30T06:54:54;100599.50;;;21.51;nan
49935;BME280;39898;41.762;26.200;2022-09-30T06:57:24;100611.16;;;21.78;nan
49935;BME280;39898;41.762;26.200;2022-09-30T06:59:53;100606.59;;;21.80;nan
49935;BME280;39898;41.762;26.200;2022-09-30T07:02:20;100600.69;;;22.15;nan
49935;BME280;39898;41.762;26.200;2022-09-30T07:04:47;100614.94;;;22.42;nan
49935;BME280;39898;41.762;26.200;2022-09-30T07:07:14;100616.53;;;22.59;nan
49935;BME280;39898;41.762;26.200;2022-09-30T07:09:41;100635.31;;;22.71;nan
49935;BME280;39898;41.762;26.200;2022-09-30T07:12:08;100616.69;;;22.82;nan
49935;BME280;39898;41.762;26.200;2022-09-30T07:14:35;100614.97;;;22.69;nan
49935;BME280;39898;41.762;26.200;2022-09-30T07:17:03;100612.00;;;22.98;nan
49935;BME280;39898;41.762;26.200;2022-09-30T07:19:31;100622.41;;;23.03;nan
49935;BME280;39898;41.762;26.200;2022-09-30T07:22:00;100632.41;;;23.01;nan
49935;BME280;39898;41.762;26.200;2022-09-30T07:24:47;100641.38;;;23.26;nan
49935;BME280;39898;41.762;26.200;2022-09-30T07:27:14;100634.19;;;23.52;nan
49935;BME280;39898;41.762;26.200;2022-09-30T07:29:41;100615.75;;;23.35;nan
49935;BME280;39898;41.762;26.200;2022-09-30T07:32:29;100632.38;;;23.53;nan
49935;BME280;39898;41.762;26.200;2022-09-30T07:34:56;100636.22;;;23.74;nan
49935;BME280;39898;41.762;26.200;2022-09-30T07:37:24;100640.94;;;23.83;nan
49935;BME280;39898;41.762;26.200;2022-09-30T07:39:52;100641.97;;;23.93;nan
49935;BME280;39898;41.762;26.200;2022-09-30T07:42:19;100640.19;;;24.29;nan
49935;BME280;39898;41.762;26.200;2022-09-30T07:44:49;100639.06;;;24.44;nan
49935;BME280;39898;41.762;26.200;2022-09-30T07:47:18;100634.22;;;24.73;nan
49935;BME280;39898;41.762;26.200;2022-09-30T07:49:45;100642.78;;;25.36;nan
49935;BME280;39898;41.762;26.200;2022-09-30T07:52:12;100634.78;;;25.23;nan
49935;BME280;39898;41.762;26.200;2022-09-30T07:54:40;100634.50;;;25.83;nan
49935;BME280;39898;41.762;26.200;2022-09-30T07:57:10;100643.38;;;26.50;nan
49935;BME280;39898;41.762;26.200;2022-09-30T07:59:39;100648.44;;;26.86;nan
49935;BME280;39898;41.762;26.200;2022-09-30T08:02:11;100649.13;;;27.19;nan
49935;BME280;39898;41.762;26.200;2022-09-30T08:04:39;100658.06;;;26.57;nan
49935;BME280;39898;41.762;26.200;2022-09-30T08:07:09;100627.56;;;26.88;nan
49935;BME280;39898;41.762;26.200;2022-09-30T08:09:36;100641.59;;;26.82;nan
49935;BME280;39898;41.762;26.200;2022-09-30T08:12:03;100645.09;;;27.14;nan
49935;BME280;39898;41.762;26.200;2022-09-30T08:14:31;100648.81;;;27.54;nan
49935;BME280;39898;41.762;26.200;2022-09-30T08:16:58;100645.41;;;27.82;nan
49935;BME280;39898;41.762;26.200;2022-09-30T08:19:27;100638.53;;;27.99;nan
49935;BME280;39898;41.762;26.200;2022-09-30T08:21:54;100646.09;;;27.54;nan
49935;BME280;39898;41.762;26.200;2022-09-30T08:24:23;100645.66;;;28.00;nan
49935;BME280;39898;41.762;26.200;2022-09-30T08:26:50;100643.31;;;27.86;nan
49935;BME280;39898;41.762;26.200;2022-09-30T08:29:17;100636.59;;;28.50;nan
49935;BME280;39898;41.762;26.200;2022-09-30T08:32:01;100638.19;;;28.71;nan
49935;BME280;39898;41.762;26.200;2022-09-30T08:34:28;100642.59;;;28.63;nan
49935;BME280;39898;41.762;26.200;2022-09-30T08:36:59;100647.91;;;29.12;nan
49935;BME280;39898;41.762;26.200;2022-09-30T08:39:30;100656.22;;;29.66;nan
49935;BME280;39898;41.762;26.200;2022-09-30T08:42:09;100655.50;;;29.64;nan
49935;BME280;39898;41.762;26.200;2022-09-30T08:45:21;100652.16;;;29.33;nan
49935;BME280;39898;41.762;26.200;2022-09-30T08:53:36;100659.09;;;28.60;nan
49935;BME280;39898;41.762;26.200;2022-09-30T08:56:04;100658.13;;;28.80;nan
49935;BME280;39898;41.762;26.200;2022-09-30T08:58:42;100656.25;;;29.28;nan
49935;BME280;39898;41.762;26.200;2022-09-30T09:03:44;100646.63;;;30.18;nan
49935;BME280;39898;41.762;26.200;2022-09-30T09:12:09;100654.69;;;30.37;nan
49935;BME280;39898;41.762;26.200;2022-09-30T09:17:38;100628.53;;;30.18;nan
49935;BME280;39898;41.762;26.200;2022-09-30T09:20:37;100648.28;;;30.55;nan
49935;BME280;39898;41.762;26.200;2022-09-30T09:23:09;100648.84;;;31.11;nan
49935;BME280;39898;41.762;26.200;2022-09-30T09:25:38;100647.19;;;31.53;nan
49935;BME280;39898;41.762;26.200;2022-09-30T09:28:24;100641.63;;;31.80;nan
49935;BME280;39898;41.762;26.200;2022-09-30T09:30:57;100641.00;;;31.26;nan
49935;BME280;39898;41.762;26.200;2022-09-30T09:33:31;100652.59;;;30.93;nan
49935;BME280;39898;41.762;26.200;2022-09-30T09:47:07;100632.53;;;31.97;nan
49935;BME280;39898;41.762;26.200;2022-09-30T09:49:43;100637.91;;;31.89;nan
49935;BME280;39898;41.762;26.200;2022-09-30T09:54:45;100631.13;;;31.68;nan
49935;BME280;39898;41.762;26.200;2022-09-30T09:57:18;100634.53;;;31.95;nan
49935;BME280;39898;41.762;26.200;2022-09-30T10:00:23;100641.53;;;31.98;nan
49935;BME280;39898;41.762;26.200;2022-09-30T10:03:21;100622.19;;;32.09;nan
49935;BME280;39898;41.762;26.200;2022-09-30T10:06:02;100605.72;;;32.11;nan
49935;BME280;39898;41.762;26.200;2022-09-30T10:08:34;100612.34;;;32.08;nan
49935;BME280;39898;41.762;26.200;2022-09-30T10:11:04;100604.78;;;31.94;nan
49935;BME280;39898;41.762;26.200;2022-09-30T10:13:42;100597.13;;;32.31;nan
49935;BME280;39898;41.762;26.200;2022-09-30T10:16:30;100604.13;;;31.92;nan
49935;BME280;39898;41.762;26.200;2022-09-30T10:18:58;100590.75;;;32.64;nan
49935;BME280;39898;41.762;26.200;2022-09-30T10:21:27;100599.75;;;32.65;nan
49935;BME280;39898;41.762;26.200;2022-09-30T10:23:54;100596.31;;;32.39;nan
49935;BME280;39898;41.762;26.200;2022-09-30T10:26:24;100593.59;;;31.97;nan
49935;BME280;39898;41.762;26.200;2022-09-30T10:28:55;100595.47;;;31.71;nan
49935;BME280;39898;41.762;26.200;2022-09-30T10:31:26;100588.63;;;31.84;nan
49935;BME280;39898;41.762;26.200;2022-09-30T10:33:58;100588.81;;;32.33;nan
49935;BME280;39898;41.762;26.200;2022-09-30T10:36:33;100588.88;;;32.65;nan
49935;BME280;39898;41.762;26.200;2022-09-30T10:39:02;100591.94;;;32.54;nan
49935;BME280;39898;41.762;26.200;2022-09-30T10:41:34;100590.94;;;32.21;nan
49935;BME280;39898;41.762;26.200;2022-09-30T10:44:05;100589.94;;;32.88;nan
49935;BME280;39898;41.762;26.200;2022-09-30T10:46:37;100580.69;;;33.69;nan
49935;BME280;39898;41.762;26.200;2022-09-30T10:49:10;100561.75;;;34.14;nan
49935;BME280;39898;41.762;26.200;2022-09-30T10:51:44;100536.41;;;33.51;nan
49935;BME280;39898;41.762;26.200;2022-09-30T10:54:35;100562.56;;;33.92;nan
49935;BME280;39898;41.762;26.200;2022-09-30T10:57:23;100536.28;;;33.44;nan
49935;BME280;39898;41.762;26.200;2022-09-30T10:59:58;100551.47;;;33.39;nan
49935;BME280;39898;41.762;26.200;2022-09-30T11:05:21;100550.53;;;34.40;nan
49935;BME280;39898;41.762;26.200;2022-09-30T11:14:18;100556.63;;;35.32;nan
49935;BME280;39898;41.762;26.200;2022-09-30T11:16:36;100551.34;;;36.03;nan
49935;BME280;39898;41.762;26.200;2022-09-30T11:19:08;100554.66;;;35.55;nan
49935;BME280;39898;41.762;26.200;2022-09-30T11:21:47;100551.25;;;34.34;nan
49935;BME280;39898;41.762;26.200;2022-09-30T11:24:40;100542.50;;;34.83;nan
49935;BME280;39898;41.762;26.200;2022-09-30T11:30:23;100540.59;;;35.58;nan
49935;BME280;39898;41.762;26.200;2022-09-30T11:35:43;100541.34;;;35.66;nan
49935;BME280;39898;41.762;26.200;2022-09-30T11:46:44;100545.97;;;35.95;nan
49935;BME280;39898;41.762;26.200;2022-09-30T11:55:25;100535.13;;;33.39;nan
49935;BME280;39898;41.762;26.200;2022-09-30T11:58:05;100544.81;;;33.09;nan
49935;BME280;39898;41.762;26.200;2022-09-30T12:01:05;100533.94;;;32.45;nan
49935;BME280;39898;41.762;26.200;2022-09-30T12:03:42;100547.38;;;32.79;nan
49935;BME280;39898;41.762;26.200;2022-09-30T12:06:25;100539.00;;;33.20;nan
49935;BME280;39898;41.762;26.200;2022-09-30T12:08:58;100540.88;;;33.44;nan
49935;BME280;39898;41.762;26.200;2022-09-30T12:11:40;100536.00;;;33.70;nan
49935;BME280;39898;41.762;26.200;2022-09-30T12:14:19;100541.63;;;34.15;nan
49935;BME280;39898;41.762;26.200;2022-09-30T12:16:47;100534.81;;;34.11;nan
49935;BME280;39898;41.762;26.200;2022-09-30T12:19:18;100539.97;;;34.06;nan
49935;BME280;39898;41.762;26.200;2022-09-30T12:22:00;100537.50;;;33.80;nan
49935;BME280;39898;41.762;26.200;2022-09-30T12:24:38;100540.50;;;34.01;nan
49935;BME280;39898;41.762;26.200;2022-09-30T12:38:24;100552.28;;;35.00;nan
49935;BME280;39898;41.762;26.200;2022-09-30T12:49:04;100562.94;;;34.95;nan
49935;BME280;39898;41.762;26.200;2022-09-30T12:51:34;100563.84;;;35.25;nan
49935;BME280;39898;41.762;26.200;2022-09-30T12:54:15;100565.34;;;35.13;nan
49935;BME280;39898;41.762;26.200;2022-09-30T12:56:45;100547.50;;;34.80;nan
49935;BME280;39898;41.762;26.200;2022-09-30T12:59:15;100562.22;;;35.53;nan
49935;BME280;39898;41.762;26.200;2022-09-30T13:01:45;100565.59;;;35.98;nan
49935;BME280;39898;41.762;26.200;2022-09-30T13:04:28;100551.53;;;35.72;nan
49935;BME280;39898;41.762;26.200;2022-09-30T13:09:36;100550.53;;;34.62;nan
49935;BME280;39898;41.762;26.200;2022-09-30T13:14:37;100552.31;;;32.51;nan
49935;BME280;39898;41.762;26.200;2022-09-30T13:19:45;100555.91;;;33.08;nan
49935;BME280;39898;41.762;26.200;2022-09-30T13:25:10;100565.91;;;33.39;nan
49935;BME280;39898;41.762;26.200;2022-09-30T13:32:48;100549.22;;;33.50;nan
49935;BME280;39898;41.762;26.200;2022-09-30T13:43:39;100551.97;;;33.81;nan
49935;BME280;39898;41.762;26.200;2022-09-30T13:46:38;100557.31;;;33.74;nan
49935;BME280;39898;41.762;26.200;2022-09-30T13:49:45;100553.78;;;33.58;nan
49935;BME280;39898;41.762;26.200;2022-09-30T13:52:24;100550.41;;;32.76;nan
49935;BME280;39898;41.762;26.200;2022-09-30T13:54:55;100555.53;;;31.97;nan
49935;BME280;39898;41.762;26.200;2022-09-30T13:57:36;100552.81;;;31.97;nan
49935;BME280;39898;41.762;26.200;2022-09-30T14:00:11;100558.59;;;32.44;nan
49935;BME280;39898;41.762;26.200;2022-09-30T14:08:31;100557.75;;;32.83;nan
49935;BME280;39898;41.762;26.200;2022-09-30T14:11:10;100554.22;;;32.17;nan
49935;BME280;39898;41.762;26.200;2022-09-30T14:21:57;100568.53;;;32.19;nan
49935;BME280;39898;41.762;26.200;2022-09-30T14:24:35;100556.44;;;32.22;nan
49935;BME280;39898;41.762;26.200;2022-09-30T14:35:22;100570.78;;;31.31;nan
49935;BME280;39898;41.762;26.200;2022-09-30T14:38:01;100560.50;;;31.42;nan
49935;BME280;39898;41.762;26.200;2022-09-30T14:40:34;100568.88;;;31.49;nan
49935;BME280;39898;41.762;26.200;2022-09-30T14:43:07;100570.19;;;31.45;nan
49935;BME280;39898;41.762;26.200;2022-09-30T14:45:38;100576.06;;;31.32;nan
49935;BME280;39898;41.762;26.200;2022-09-30T14:48:16;100572.13;;;31.27;nan
49935;BME280;39898;41.762;26.200;2022-09-30T14:50:58;100581.50;;;31.32;nan
49935;BME280;39898;41.762;26.200;2022-09-30T14:53:34;100588.34;;;31.19;nan
49935;BME280;39898;41.762;26.200;2022-09-30T14:56:03;100582.41;;;30.80;nan
49935;BME280;39898;41.762;26.200;2022-09-30T14:58:40;100592.72;;;30.94;nan
49935;BME280;39898;41.762;26.200;2022-09-30T15:01:11;100583.97;;;31.00;nan
49935;BME280;39898;41.762;26.200;2022-09-30T15:03:43;100543.84;;;30.59;nan
49935;BME280;39898;41.762;26.200;2022-09-30T15:06:25;100590.22;;;30.48;nan
49935;BME280;39898;41.762;26.200;2022-09-30T15:11:31;100591.88;;;30.32;nan
49935;BME280;39898;41.762;26.200;2022-09-30T15:14:17;100594.69;;;30.22;nan
49935;BME280;39898;41.762;26.200;2022-09-30T15:16:55;100588.72;;;30.09;nan
49935;BME280;39898;41.762;26.200;2022-09-30T15:19:32;100591.44;;;30.09;nan
49935;BME280;39898;41.762;26.200;2022-09-30T15:22:04;100594.50;;;29.97;nan
49935;BME280;39898;41.762;26.200;2022-09-30T15:24:33;100597.81;;;29.90;nan
49935;BME280;39898;41.762;26.200;2022-09-30T15:27:01;100594.44;;;29.79;nan
49935;BME280;39898;41.762;26.200;2022-09-30T15:29:29;100597.19;;;29.60;nan
49935;BME280;39898;41.762;26.200;2022-09-30T15:32:23;100597.38;;;29.49;nan
49935;BME280;39898;41.762;26.200;2022-09-30T15:34:50;100607.94;;;29.42;nan
49935;BME280;39898;41.762;26.200;2022-09-30T15:37:23;100607.25;;;29.31;nan
49935;BME280;39898;41.762;26.200;2022-09-30T15:39:51;100625.38;;;29.21;nan
49935;BME280;39898;41.762;26.200;2022-09-30T15:42:43;100626.41;;;29.10;nan
49935;BME280;39898;41.762;26.200;2022-09-30T15:47:58;100629.34;;;28.98;nan
49935;BME280;39898;41.762;26.200;2022-09-30T15:53:14;100629.75;;;28.46;nan
49935;BME280;39898;41.762;26.200;2022-09-30T15:55:46;100654.94;;;28.46;nan
49935;BME280;39898;41.762;26.200;2022-09-30T15:58:38;100660.97;;;28.29;nan
49935;BME280;39898;41.762;26.200;2022-09-30T16:03:53;100666.50;;;28.18;nan
49935;BME280;39898;41.762;26.200;2022-09-30T16:06:26;100669.72;;;28.03;nan
49935;BME280;39898;41.762;26.200;2022-09-30T16:08:57;100687.72;;;27.93;nan
49935;BME280;39898;41.762;26.200;2022-09-30T16:11:32;100617.66;;;27.70;nan
49935;BME280;39898;41.762;26.200;2022-09-30T16:14:02;100677.06;;;27.91;nan
49935;BME280;39898;41.762;26.200;2022-09-30T16:16:32;100674.63;;;27.88;nan
49935;BME280;39898;41.762;26.200;2022-09-30T16:19:01;100668.69;;;27.73;nan
49935;BME280;39898;41.762;26.200;2022-09-30T16:27:19;100688.31;;;27.03;nan
49935;BME280;39898;41.762;26.200;2022-09-30T16:29:46;100696.34;;;26.93;nan